METAR AND TAF INFORMATION
METAR FOR LKKV
ADDS - METARS form results

(0803 UTC 21 October 2020)
Data provider http://aviationweather.gov/metar/data/
 
METAR text: LKKV 210800Z 14003KT 100V180 4000 BR SCT004 07/06 Q1014
Conditions at: LKKV (KARLOVY VARY , CZ) observed 0800 UTC 21 October 2020
Temperature: 7.0°C (45°F)
Dewpoint: 6.0°C (43°F) [RH = 93%]
Pressure (altimeter): 29.94 inches Hg (1014.0 mb)
Winds: from the SE (140 degrees) at 3 MPH (3 knots; 1.5 m/s)
Visibility: 2.49 miles (4.01 km)
Ceiling: at least 12,000 feet AGL
Clouds: scattered clouds at 400 feet AGL
Weather: BR  (mist)

METAR text: LKKV 210730Z 12004KT 090V150 4000 BR SCT003 07/06 Q1013
Conditions at: LKKV (KARLOVY VARY , CZ) observed 0730 UTC 21 October 2020
Temperature: 7.0°C (45°F)
Dewpoint: 6.0°C (43°F) [RH = 93%]
Pressure (altimeter): 29.91 inches Hg (1013.0 mb)
Winds: from the ESE (120 degrees) at 5 MPH (4 knots; 2.1 m/s)
Visibility: 2.49 miles (4.01 km)
Ceiling: at least 12,000 feet AGL
Clouds: scattered clouds at 300 feet AGL
Weather: BR  (mist)

METAR text: LKKV 210723Z 12004KT 090V150 3000 BR SCT003 07/06 Q1013 RMK REG QNH 1011
Conditions at: LKKV (KARLOVY VARY , CZ) observed 0723 UTC 21 October 2020
Temperature: 7.0°C (45°F)
Dewpoint: 6.0°C (43°F) [RH = 93%]
Pressure (altimeter): 29.91 inches Hg (1013.0 mb)
Winds: from the ESE (120 degrees) at 5 MPH (4 knots; 2.1 m/s)
Visibility: 1.86 miles (2.99 km)
Ceiling: at least 12,000 feet AGL
Clouds: scattered clouds at 300 feet AGL
Weather: BR  (mist)

Forecast for: LKKV (KARLOVY VARY , CZ)
Text: TAF LKKV 210500Z 2106/2212 12005KT CAVOK
Forecast period: 0600 to 1600 UTC 21 October 2020
Forecast type: FROM: standard forecast or significant change
Winds: from the ESE (120 degrees) at 6 MPH (5 knots; 2.6 m/s)
Visibility: 6 or more miles (10+ km)
Ceiling: unknown
Clouds: missing
Weather: NSW  (no significant weather)
Text: TEMPO 2106/2108 4000 BR NSC
Forecast period: 0600 to 0800 UTC 21 October 2020
Forecast type: TEMPORARY: The following changes expected for less than half the time period
Visibility: 2.49 miles (4.01 km)
Ceiling: unknown
Clouds: missing
Weather: BR  (mist)
Text: PROB30
Forecast period: 0600 to 0700 UTC 21 October 2020
Forecast type: TEMPORARY: The following changes expected for less than half the time period
Visibility: 1.24 miles (2.00 km)
Ceiling: at least 12,000 feet AGL
Clouds: scattered clouds at 200 feet AGL
Weather: MIFG  (shallow fog)
Text: TEMPO 2106/2107 2000 MIFG SCT002
Forecast period: 1600 UTC 21 October 2020 to 1200 UTC 22 October 2020
Forecast type: BECOMING: Conditions expected to become as follows by 2000 UTC 21 October 2020
Winds: from the WSW (240 degrees) at 9 MPH (8 knots; 4.1 m/s)
Visibility: 6 or more miles (10+ km)
Ceiling: unknown
Clouds: missing
Weather: NSW  (no significant weather)

 AIRPORT MAP

Unable to connect to database [(proxy) all backends are down]